Time;durP1;ratioP1;P1;durP2;ratioP2;P2;SDS_P1;SDS_P2;PMS_P1;PMS_P2;Temp;Humidity;BMP_temperature;BMP_pressure;BME280_temperature;BME280_humidity;BME280_pressure;Samples;Min_cycle;Max_cycle;Signal;HPM_P1;HPM_P2
2022/06/30 00:02:22;;;;;;;17.90;14.80;;;;;;;;;;4361354;32;20032;-75
2022/06/30 00:04:48;;;;;;;19.52;15.55;;;;;;;;;;4361608;32;20023;-74
2022/06/30 00:07:13;;;;;;;17.77;14.75;;;;;;;;;;4361836;32;20039;-75
2022/06/30 00:09:58;;;;;;;17.02;13.88;;;;;;;;;;4361893;32;20026;-75
2022/06/30 00:12:23;;;;;;;15.48;13.88;;;;;;;;;;4361851;32;20035;-74
2022/06/30 00:14:48;;;;;;;21.95;15.82;;;;;;;;;;4365768;32;20396;-75
2022/06/30 00:17:14;;;;;;;15.45;13.62;;;;;;;;;;4376361;32;20030;-74
2022/06/30 00:19:40;;;;;;;16.45;14.70;;;;;;;;;;4376854;32;20023;-74
2022/06/30 00:22:07;;;;;;;19.25;15.82;;;;;;;;;;4376920;32;20069;-74
2022/06/30 00:24:33;;;;;;;18.25;14.75;;;;;;;;;;4376119;32;20027;-74
2022/06/30 00:26:58;;;;;;;19.00;16.00;;;;;;;;;;4375936;32;20092;-74
2022/06/30 00:29:23;;;;;;;16.33;14.57;;;;;;;;;;4375519;32;20026;-74
2022/06/30 00:31:49;;;;;;;18.67;16.08;;;;;;;;;;4376324;32;20031;-74
2022/06/30 00:34:14;;;;;;;17.52;15.55;;;;;;;;;;4375707;32;20384;-74
2022/06/30 00:36:39;;;;;;;18.80;15.60;;;;;;;;;;4375352;32;20027;-75
2022/06/30 00:39:04;;;;;;;19.65;16.08;;;;;;;;;;4392402;27;20106;-71
2022/06/30 00:41:30;;;;;;;17.58;15.77;;;;;;;;;;4377191;32;20028;-70
2022/06/30 00:43:55;;;;;;;17.65;15.73;;;;;;;;;;4377276;32;20053;-70
2022/06/30 00:46:20;;;;;;;18.67;16.62;;;;;;;;;;4377397;32;20057;-73
2022/06/30 00:48:46;;;;;;;25.55;18.45;;;;;;;;;;4381103;32;20403;-71
2022/06/30 00:51:11;;;;;;;21.73;17.17;;;;;;;;;;4390837;32;20022;-71
2022/06/30 00:53:37;;;;;;;22.27;18.62;;;;;;;;;;4390635;32;20092;-71
2022/06/30 00:56:03;;;;;;;19.77;17.62;;;;;;;;;;4392336;32;20056;-71
2022/06/30 00:58:29;;;;;;;24.10;18.65;;;;;;;;;;4391426;32;20073;-71
2022/06/30 01:00:55;;;;;;;23.55;18.30;;;;;;;;;;4391187;32;20027;-71
2022/06/30 01:03:20;;;;;;;19.58;16.45;;;;;;;;;;4391442;32;20031;-71
2022/06/30 01:05:46;;;;;;;20.05;17.95;;;;;;;;;;4390678;32;20332;-71
2022/06/30 01:08:12;;;;;;;19.27;17.27;;;;;;;;;;4378654;32;20038;-71
2022/06/30 01:13:21;;;;;;;23.75;18.17;;;;;;;;;;4376799;32;20078;-70
2022/06/30 01:15:46;;;;;;;20.45;18.45;;;;;;;;;;4375409;32;20401;-71
2022/06/30 01:18:11;;;;;;;23.55;19.77;;;;;;;;;;4376025;32;20018;-71
2022/06/30 01:20:36;;;;;;;22.33;20.12;;;;;;;;;;4390349;32;20060;-71
2022/06/30 01:23:02;;;;;;;19.27;17.27;;;;;;;;;;4390897;32;20048;-71
2022/06/30 01:25:28;;;;;;;22.70;20.30;;;;;;;;;;4391263;32;20026;-71
2022/06/30 01:27:53;;;;;;;27.35;20.98;;;;;;;;;;4391589;32;20076;-71
2022/06/30 01:30:19;;;;;;;23.52;21.15;;;;;;;;;;4391613;32;20065;-71
2022/06/30 01:32:44;;;;;;;21.70;19.40;;;;;;;;;;4391153;32;20430;-71
2022/06/30 01:35:09;;;;;;;21.87;19.12;;;;;;;;;;4362362;32;20034;-71
2022/06/30 01:37:45;;;;;;;20.50;18.50;;;;;;;;;;4376086;32;20066;-71
2022/06/30 01:40:11;;;;;;;22.98;19.87;;;;;;;;;;4361684;32;20065;-71
2022/06/30 01:42:36;;;;;;;22.55;18.65;;;;;;;;;;4361921;32;20024;-70
2022/06/30 01:45:01;;;;;;;23.25;20.37;;;;;;;;;;4375634;32;20039;-71
2022/06/30 01:47:26;;;;;;;21.90;19.80;;;;;;;;;;4361110;32;20047;-71
2022/06/30 01:49:51;;;;;;;28.12;20.90;;;;;;;;;;4361773;32;20061;-71
2022/06/30 01:52:17;;;;;;;23.23;20.92;;;;;;;;;;4375442;32;20076;-71
2022/06/30 01:54:42;;;;;;;22.80;20.62;;;;;;;;;;4376915;32;20054;-71
2022/06/30 01:57:07;;;;;;;27.93;21.60;;;;;;;;;;4378687;32;20019;-71
2022/06/30 01:59:32;;;;;;;23.70;20.52;;;;;;;;;;4378142;32;20177;-71
2022/06/30 02:01:57;;;;;;;26.93;19.97;;;;;;;;;;4371543;32;20098;-71
2022/06/30 02:07:07;;;;;;;24.00;20.37;;;;;;;;;;4364355;32;20049;-71
2022/06/30 02:09:32;;;;;;;24.33;20.90;;;;;;;;;;4350855;32;20047;-71
2022/06/30 02:14:41;;;;;;;22.17;19.98;;;;;;;;;;4378664;32;20142;-71
2022/06/30 02:17:06;;;;;;;23.12;19.95;;;;;;;;;;4379953;32;20047;-71
2022/06/30 02:19:32;;;;;;;23.87;20.10;;;;;;;;;;4363807;32;20097;-71
2022/06/30 02:21:57;;;;;;;22.17;16.37;;;;;;;;;;4375748;32;20090;-71
2022/06/30 02:24:23;;;;;;;23.90;20.58;;;;;;;;;;4377763;32;20106;-71
2022/06/30 02:26:48;;;;;;;22.67;20.37;;;;;;;;;;4364165;32;20057;-71
2022/06/30 02:29:13;;;;;;;26.40;21.15;;;;;;;;;;4377439;32;20102;-71
2022/06/30 02:31:38;;;;;;;25.77;21.45;;;;;;;;;;4378017;32;20097;-71
2022/06/30 02:34:03;;;;;;;24.63;18.37;;;;;;;;;;4377367;32;20094;-71
2022/06/30 02:36:29;;;;;;;25.70;20.23;;;;;;;;;;4377766;32;20449;-71
2022/06/30 02:38:54;;;;;;;21.17;19.07;;;;;;;;;;4380798;32;20042;-71
2022/06/30 02:41:20;;;;;;;23.27;19.98;;;;;;;;;;4382616;32;20119;-71
2022/06/30 02:43:48;;;;;;;23.62;20.85;;;;;;;;;;4379334;32;20066;-69
2022/06/30 02:46:13;;;;;;;21.40;19.10;;;;;;;;;;4377691;32;20034;-71
2022/06/30 02:48:38;;;;;;;22.63;20.20;;;;;;;;;;4364294;32;20061;-71
2022/06/30 02:51:03;;;;;;;22.95;19.27;;;;;;;;;;4378126;32;20476;-70
2022/06/30 02:53:28;;;;;;;21.90;16.13;;;;;;;;;;4364575;32;20027;-71
2022/06/30 02:55:53;;;;;;;24.15;20.05;;;;;;;;;;4376957;32;20496;-70
2022/06/30 02:58:19;;;;;;;23.87;21.37;;;;;;;;;;4378853;32;20145;-70
2022/06/30 03:00:44;;;;;;;23.92;21.12;;;;;;;;;;4363707;32;20120;-71
2022/06/30 03:03:09;;;;;;;22.95;20.67;;;;;;;;;;4363816;32;20406;-71
2022/06/30 03:05:34;;;;;;;26.23;20.98;;;;;;;;;;4348491;33;20083;-71
2022/06/30 03:08:00;;;;;;;20.83;18.42;;;;;;;;;;4362640;32;20023;-71
2022/06/30 03:10:25;;;;;;;24.73;22.10;;;;;;;;;;4362649;32;20059;-71
2022/06/30 03:12:50;;;;;;;21.65;18.42;;;;;;;;;;4349856;32;20376;-71
2022/06/30 03:15:15;;;;;;;26.65;22.48;;;;;;;;;;4374205;32;20081;-71
2022/06/30 03:17:41;;;;;;;25.98;22.52;;;;;;;;;;4376885;32;20096;-71
2022/06/30 03:20:06;;;;;;;25.00;21.55;;;;;;;;;;4363109;32;20353;-70
2022/06/30 03:22:31;;;;;;;28.77;22.25;;;;;;;;;;4378685;32;20072;-71
2022/06/30 03:24:57;;;;;;;22.40;20.15;;;;;;;;;;4382218;32;20026;-71
2022/06/30 03:27:22;;;;;;;25.50;22.90;;;;;;;;;;4377266;32;20026;-71
2022/06/30 03:29:47;;;;;;;32.92;25.70;;;;;;;;;;4374868;32;20449;-71
2022/06/30 03:32:12;;;;;;;30.10;24.23;;;;;;;;;;4376527;32;20027;-71
2022/06/30 03:34:37;;;;;;;26.37;23.37;;;;;;;;;;4376398;32;20083;-71
2022/06/30 03:37:03;;;;;;;29.53;25.43;;;;;;;;;;4362932;32;20485;-71
2022/06/30 03:39:28;;;;;;;30.25;26.75;;;;;;;;;;4356875;32;20139;-70
2022/06/30 03:41:53;;;;;;;32.00;28.12;;;;;;;;;;4362589;32;20085;-70
2022/06/30 03:44:18;;;;;;;28.48;24.77;;;;;;;;;;4351017;32;20085;-71
2022/06/30 03:46:43;;;;;;;36.78;29.80;;;;;;;;;;4377733;32;20050;-71
2022/06/30 03:49:08;;;;;;;32.47;28.03;;;;;;;;;;4377904;32;20023;-71
2022/06/30 03:51:34;;;;;;;37.73;29.93;;;;;;;;;;4376478;32;20544;-71
2022/06/30 03:53:59;;;;;;;39.90;31.67;;;;;;;;;;4377058;32;20115;-72
2022/06/30 03:56:24;;;;;;;36.95;32.20;;;;;;;;;;4378054;32;20439;-71
2022/06/30 03:58:49;;;;;;;36.42;30.23;;;;;;;;;;4376183;32;20019;-70
2022/06/30 04:01:14;;;;;;;38.25;34.22;;;;;;;;;;4362283;32;20067;-71
2022/06/30 04:03:40;;;;;;;40.63;34.53;;;;;;;;;;4376598;32;20019;-70
2022/06/30 04:06:05;;;;;;;45.50;34.40;;;;;;;;;;4375833;32;20074;-70
2022/06/30 04:08:30;;;;;;;40.05;31.92;;;;;;;;;;4377691;32;20035;-70
2022/06/30 04:10:56;;;;;;;40.67;34.43;;;;;;;;;;4376110;32;20023;-71
2022/06/30 04:13:21;;;;;;;37.55;33.50;;;;;;;;;;4375785;32;20445;-70
2022/06/30 04:15:46;;;;;;;39.88;31.20;;;;;;;;;;4375524;32;20022;-70
2022/06/30 04:18:12;;;;;;;40.25;31.73;;;;;;;;;;4376924;32;20397;-70
2022/06/30 04:20:37;;;;;;;37.92;31.98;;;;;;;;;;4362409;32;20146;-70
2022/06/30 04:23:03;;;;;;;44.45;35.47;;;;;;;;;;4361141;32;20027;-70
2022/06/30 04:25:28;;;;;;;44.00;34.60;;;;;;;;;;4362675;32;20408;-70
2022/06/30 04:27:54;;;;;;;48.40;34.42;;;;;;;;;;4360879;32;20061;-70
2022/06/30 04:32:37;;;;;;;44.20;33.40;;;;;;;;;;4360811;32;20035;-71
2022/06/30 04:33:04;;;;;;;42.15;30.77;;;;;;;;;;4363184;32;20023;-71
2022/06/30 04:35:30;;;;;;;30.15;22.95;;;;;;;;;;4361602;32;20138;-72
2022/06/30 04:37:58;;;;;;;27.00;21.42;;;;;;;;;;4364518;32;20353;-71
2022/06/30 04:43:07;;;;;;;27.80;17.23;;;;;;;;;;4378004;32;20065;-70
2022/06/30 04:45:33;;;;;;;19.73;13.95;;;;;;;;;;4380852;32;20412;-71
2022/06/30 04:47:58;;;;;;;18.52;11.60;;;;;;;;;;4377049;32;20093;-70
2022/06/30 04:50:23;;;;;;;13.77;10.15;;;;;;;;;;4376738;32;20031;-70
2022/06/30 04:52:48;;;;;;;14.85;9.27;;;;;;;;;;4373906;32;20023;-70
2022/06/30 04:55:13;;;;;;;14.75;9.02;;;;;;;;;;4361901;32;20111;-70
2022/06/30 04:57:39;;;;;;;18.43;9.00;;;;;;;;;;4364329;32;20027;-70
2022/06/30 05:00:05;;;;;;;15.20;7.70;;;;;;;;;;4376805;32;20142;-69
2022/06/30 05:02:30;;;;;;;11.98;7.05;;;;;;;;;;4375583;32;20449;-70
2022/06/30 05:04:55;;;;;;;12.15;7.20;;;;;;;;;;4375741;32;20054;-70
2022/06/30 05:07:21;;;;;;;9.90;7.12;;;;;;;;;;4375186;32;20073;-70
2022/06/30 05:09:46;;;;;;;11.65;7.37;;;;;;;;;;4374541;32;20509;-70
2022/06/30 05:12:11;;;;;;;14.10;6.95;;;;;;;;;;4374777;32;20061;-71
2022/06/30 05:14:36;;;;;;;13.60;7.60;;;;;;;;;;4375233;32;20093;-71
2022/06/30 05:17:02;;;;;;;14.75;7.78;;;;;;;;;;4362063;32;20192;-70
2022/06/30 05:19:27;;;;;;;12.32;8.88;;;;;;;;;;4374404;32;20081;-71
2022/06/30 05:21:52;;;;;;;17.52;10.68;;;;;;;;;;4370835;32;20023;-71
2022/06/30 05:27:01;;;;;;;17.00;9.75;;;;;;;;;;4361580;32;20078;-71
2022/06/30 05:29:27;;;;;;;15.35;8.93;;;;;;;;;;4361058;32;20039;-71
2022/06/30 05:31:52;;;;;;;11.43;7.40;;;;;;;;;;4346745;33;20049;-71
2022/06/30 05:34:17;;;;;;;12.97;7.53;;;;;;;;;;4346250;33;20061;-70
2022/06/30 05:36:42;;;;;;;14.33;7.17;;;;;;;;;;4361802;32;20123;-71
2022/06/30 05:39:07;;;;;;;15.40;7.03;;;;;;;;;;4360054;32;20166;-70
2022/06/30 05:41:32;;;;;;;19.00;7.07;;;;;;;;;;4359917;33;20103;-69
2022/06/30 05:43:58;;;;;;;17.55;7.40;;;;;;;;;;4347179;33;20533;-70
2022/06/30 05:46:23;;;;;;;21.97;6.23;;;;;;;;;;4361189;33;20058;-70
2022/06/30 05:48:48;;;;;;;14.63;7.23;;;;;;;;;;4361840;33;20143;-70
2022/06/30 05:51:14;;;;;;;13.13;5.57;;;;;;;;;;4362533;32;20202;-70
2022/06/30 05:53:39;;;;;;;17.15;6.35;;;;;;;;;;4360786;32;20509;-70
2022/06/30 05:56:04;;;;;;;11.90;5.90;;;;;;;;;;4362689;32;20032;-70
2022/06/30 05:58:30;;;;;;;12.10;5.35;;;;;;;;;;4373509;32;20124;-71
2022/06/30 06:00:55;;;;;;;12.13;4.47;;;;;;;;;;4373426;32;20115;-72
2022/06/30 06:03:20;;;;;;;13.35;5.18;;;;;;;;;;4376247;32;20023;-71
2022/06/30 06:05:45;;;;;;;11.48;4.72;;;;;;;;;;4361456;32;20149;-71
2022/06/30 06:08:12;;;;;;;8.90;4.30;;;;;;;;;;4375814;32;20053;-69
2022/06/30 06:10:37;;;;;;;9.50;4.70;;;;;;;;;;4374632;32;20165;-71
2022/06/30 06:13:04;;;;;;;7.28;3.97;;;;;;;;;;4360315;32;20436;-71
2022/06/30 06:15:29;;;;;;;12.27;5.03;;;;;;;;;;4360636;32;20073;-71
2022/06/30 06:17:54;;;;;;;16.60;5.07;;;;;;;;;;4360813;32;20163;-70
2022/06/30 06:20:20;;;;;;;8.60;4.62;;;;;;;;;;4374455;32;20031;-70
2022/06/30 06:22:45;;;;;;;10.75;4.40;;;;;;;;;;4371079;32;20076;-70
2022/06/30 06:25:11;;;;;;;8.68;3.70;;;;;;;;;;4363748;32;20031;-71
2022/06/30 06:27:37;;;;;;;9.82;3.42;;;;;;;;;;4371352;32;20381;-71
2022/06/30 06:30:03;;;;;;;7.32;2.58;;;;;;;;;;4369580;32;20081;-71
2022/06/30 06:32:28;;;;;;;7.12;3.05;;;;;;;;;;4366310;32;20031;-71
2022/06/30 06:34:53;;;;;;;9.43;3.30;;;;;;;;;;4345632;33;20086;-70
2022/06/30 06:37:19;;;;;;;8.40;2.67;;;;;;;;;;4352269;32;20433;-70
2022/06/30 06:39:44;;;;;;;6.07;3.05;;;;;;;;;;4364053;32;20423;-70
2022/06/30 06:42:09;;;;;;;10.20;4.25;;;;;;;;;;4363877;32;20417;-71
2022/06/30 06:44:34;;;;;;;7.37;3.20;;;;;;;;;;4376504;32;20361;-70
2022/06/30 06:46:59;;;;;;;9.73;3.00;;;;;;;;;;4370774;32;20127;-69
2022/06/30 06:49:26;;;;;;;7.05;3.05;;;;;;;;;;4377755;32;20054;-70
2022/06/30 06:51:51;;;;;;;8.57;2.95;;;;;;;;;;4362867;32;20026;-70
2022/06/30 06:54:17;;;;;;;9.13;2.60;;;;;;;;;;4375432;32;20100;-70
2022/06/30 06:56:42;;;;;;;6.47;2.67;;;;;;;;;;4376909;32;20141;-71
2022/06/30 06:59:07;;;;;;;8.07;2.42;;;;;;;;;;4374600;32;20105;-70
2022/06/30 07:01:33;;;;;;;6.57;2.63;;;;;;;;;;4362900;32;20112;-72
2022/06/30 07:03:58;;;;;;;7.28;2.72;;;;;;;;;;4363244;32;20170;-70
2022/06/30 07:06:24;;;;;;;8.88;2.45;;;;;;;;;;4375310;32;20054;-70
2022/06/30 07:08:49;;;;;;;9.93;3.30;;;;;;;;;;4362791;32;20412;-71
2022/06/30 07:11:14;;;;;;;6.12;2.83;;;;;;;;;;4364959;32;20027;-70
2022/06/30 07:13:39;;;;;;;7.17;2.90;;;;;;;;;;4362180;32;20049;-71
2022/06/30 07:16:05;;;;;;;5.40;2.70;;;;;;;;;;4370043;32;20339;-72
2022/06/30 07:18:30;;;;;;;7.75;3.08;;;;;;;;;;4373221;32;20022;-71
2022/06/30 07:20:55;;;;;;;11.75;3.25;;;;;;;;;;4371860;32;20128;-71
2022/06/30 07:23:20;;;;;;;9.10;2.60;;;;;;;;;;4364268;32;20040;-68
2022/06/30 07:25:46;;;;;;;6.30;3.00;;;;;;;;;;4362942;32;20055;-70
2022/06/30 07:28:11;;;;;;;6.30;3.22;;;;;;;;;;4368837;32;20034;-70
2022/06/30 07:30:36;;;;;;;10.23;3.00;;;;;;;;;;4368250;32;20043;-71
2022/06/30 07:33:02;;;;;;;5.82;3.25;;;;;;;;;;4362169;32;20058;-70
2022/06/30 07:35:27;;;;;;;7.07;3.30;;;;;;;;;;4374125;32;20141;-70
2022/06/30 07:37:52;;;;;;;9.10;3.00;;;;;;;;;;4369779;32;20357;-71
2022/06/30 07:40:17;;;;;;;7.03;2.53;;;;;;;;;;4373909;32;20043;-71
2022/06/30 07:42:43;;;;;;;4.82;2.20;;;;;;;;;;4372640;32;20042;-70
2022/06/30 07:45:08;;;;;;;8.13;2.50;;;;;;;;;;4374145;32;20065;-69
2022/06/30 07:47:34;;;;;;;6.15;2.50;;;;;;;;;;4372325;32;20073;-69
2022/06/30 07:50:00;;;;;;;4.12;2.03;;;;;;;;;;4351060;32;20031;-70
2022/06/30 07:52:25;;;;;;;11.82;2.30;;;;;;;;;;4376513;32;20063;-70
2022/06/30 07:54:51;;;;;;;9.07;3.47;;;;;;;;;;4370072;32;20027;-71
2022/06/30 07:57:17;;;;;;;8.00;2.87;;;;;;;;;;4373468;32;20125;-70
2022/06/30 07:59:42;;;;;;;8.90;2.80;;;;;;;;;;4362983;32;20027;-70
2022/06/30 08:02:07;;;;;;;9.53;3.80;;;;;;;;;;4364970;32;20081;-71
2022/06/30 08:04:33;;;;;;;10.60;2.62;;;;;;;;;;4361030;32;20123;-70
2022/06/30 08:07:01;;;;;;;6.35;2.80;;;;;;;;;;4374815;32;20375;-71
2022/06/30 08:09:26;;;;;;;7.15;2.83;;;;;;;;;;4387745;32;20207;-70
2022/06/30 08:11:53;;;;;;;5.07;2.00;;;;;;;;;;4374668;32;20024;-69
2022/06/30 08:14:18;;;;;;;5.28;2.30;;;;;;;;;;4375433;32;20080;-70
2022/06/30 08:16:43;;;;;;;6.82;2.58;;;;;;;;;;4358426;32;20092;-71
2022/06/30 08:19:09;;;;;;;7.45;2.22;;;;;;;;;;4371340;32;20412;-70
2022/06/30 08:21:34;;;;;;;6.87;2.50;;;;;;;;;;4375279;32;20053;-70
2022/06/30 08:23:59;;;;;;;3.45;1.87;;;;;;;;;;4375509;32;20023;-70
2022/06/30 08:26:24;;;;;;;6.78;2.08;;;;;;;;;;4356515;32;20061;-69
2022/06/30 08:28:49;;;;;;;5.13;1.90;;;;;;;;;;4375968;32;20019;-69
2022/06/30 08:31:16;;;;;;;6.00;2.40;;;;;;;;;;4358406;32;20186;-70
2022/06/30 08:33:41;;;;;;;6.90;2.72;;;;;;;;;;4360617;32;20027;-70
2022/06/30 08:36:06;;;;;;;4.57;2.00;;;;;;;;;;4363869;32;20034;-69
2022/06/30 08:38:33;;;;;;;11.05;2.35;;;;;;;;;;4375902;32;20043;-69
2022/06/30 08:43:43;;;;;;;7.15;2.70;;;;;;;;;;4374642;32;20104;-70
2022/06/30 08:46:11;;;;;;;7.40;2.78;;;;;;;;;;4361382;32;20396;-70
2022/06/30 08:48:36;;;;;;;7.80;1.95;;;;;;;;;;4373769;32;20066;-70
2022/06/30 08:51:03;;;;;;;3.78;1.58;;;;;;;;;;4362613;32;20424;-69
2022/06/30 08:53:31;;;;;;;7.60;2.28;;;;;;;;;;4365218;32;20113;-70
2022/06/30 08:55:56;;;;;;;8.73;2.75;;;;;;;;;;4360587;32;20066;-70
2022/06/30 08:58:22;;;;;;;6.90;1.85;;;;;;;;;;4387093;32;20368;-69
2022/06/30 09:00:50;;;;;;;7.12;2.22;;;;;;;;;;4390252;32;20031;-70
2022/06/30 09:03:17;;;;;;;6.43;2.25;;;;;;;;;;4374090;32;20114;-70
2022/06/30 09:05:44;;;;;;;7.40;2.47;;;;;;;;;;4371729;32;20416;-68
2022/06/30 09:08:09;;;;;;;7.85;2.53;;;;;;;;;;4359259;32;20345;-70
2022/06/30 09:10:34;;;;;;;6.10;2.08;;;;;;;;;;4351199;32;20054;-70
2022/06/30 09:13:00;;;;;;;3.92;2.05;;;;;;;;;;4371096;32;20054;-69
2022/06/30 09:15:28;;;;;;;12.37;2.30;;;;;;;;;;4376035;32;20064;-70
2022/06/30 09:17:53;;;;;;;6.53;2.65;;;;;;;;;;4375413;32;20131;-70
2022/06/30 09:20:19;;;;;;;6.72;3.03;;;;;;;;;;4375387;32;20057;-69
2022/06/30 09:22:44;;;;;;;7.75;2.80;;;;;;;;;;4374325;32;20093;-70
2022/06/30 09:25:15;;;;;;;11.35;2.45;;;;;;;;;;4362640;32;20051;-69
2022/06/30 09:27:41;;;;;;;5.50;2.00;;;;;;;;;;4346154;33;20058;-69
2022/06/30 09:30:09;;;;;;;10.93;2.30;;;;;;;;;;4369423;32;20097;-71
2022/06/30 09:32:53;;;;;;;9.57;2.20;;;;;;;;;;4374983;32;20031;-69
2022/06/30 09:35:19;;;;;;;5.40;2.00;;;;;;;;;;4375310;32;20435;-70
2022/06/30 09:37:44;;;;;;;8.40;2.85;;;;;;;;;;4358695;32;20030;-71
2022/06/30 09:40:10;;;;;;;7.15;2.40;;;;;;;;;;4375293;32;20075;-69
2022/06/30 09:42:45;;;;;;;8.15;1.90;;;;;;;;;;4360841;32;20191;-70
2022/06/30 09:45:12;;;;;;;4.23;1.90;;;;;;;;;;4371884;32;20022;-71
2022/06/30 09:47:50;;;;;;;7.87;2.37;;;;;;;;;;4376503;32;20427;-71
2022/06/30 09:50:15;;;;;;;5.78;1.90;;;;;;;;;;4374821;32;20172;-68
2022/06/30 09:52:40;;;;;;;5.28;1.90;;;;;;;;;;4370879;32;20090;-70
2022/06/30 09:55:07;;;;;;;4.22;1.85;;;;;;;;;;4359103;33;20089;-70
2022/06/30 09:57:36;;;;;;;3.80;2.00;;;;;;;;;;4353774;32;20019;-70
2022/06/30 10:00:08;;;;;;;6.43;1.65;;;;;;;;;;4376071;32;20081;-70
2022/06/30 10:02:39;;;;;;;10.77;2.70;;;;;;;;;;4374195;32;20034;-71
2022/06/30 10:05:04;;;;;;;10.20;3.03;;;;;;;;;;4361441;33;20054;-68
2022/06/30 10:07:34;;;;;;;8.13;2.53;;;;;;;;;;4361560;32;20039;-70
2022/06/30 10:10:00;;;;;;;11.02;3.20;;;;;;;;;;4370255;32;20469;-70
2022/06/30 10:12:25;;;;;;;8.65;2.25;;;;;;;;;;4373914;32;20023;-71
2022/06/30 10:14:52;;;;;;;12.00;3.30;;;;;;;;;;4374260;32;20062;-69
2022/06/30 10:17:18;;;;;;;4.65;2.15;;;;;;;;;;4378294;32;20371;-72
2022/06/30 10:19:44;;;;;;;7.72;3.35;;;;;;;;;;4370937;32;20080;-70
2022/06/30 10:22:10;;;;;;;8.43;2.80;;;;;;;;;;4348535;33;20022;-71
2022/06/30 10:24:35;;;;;;;4.47;2.10;;;;;;;;;;4348584;33;20031;-68
2022/06/30 10:27:12;;;;;;;5.72;2.30;;;;;;;;;;4364622;32;20101;-71
2022/06/30 10:29:40;;;;;;;3.60;2.03;;;;;;;;;;4375064;32;20027;-71
2022/06/30 10:32:08;;;;;;;6.72;2.42;;;;;;;;;;4368761;32;20031;-72
2022/06/30 10:34:36;;;;;;;4.78;2.28;;;;;;;;;;4362621;32;20032;-70
2022/06/30 10:37:15;;;;;;;8.55;3.30;;;;;;;;;;4363743;32;20035;-71
2022/06/30 10:39:47;;;;;;;8.10;2.40;;;;;;;;;;4362608;32;20454;-71
2022/06/30 10:42:31;;;;;;;8.90;2.83;;;;;;;;;;4372875;32;20057;-70
2022/06/30 10:44:56;;;;;;;6.50;2.87;;;;;;;;;;4377607;32;20108;-68
2022/06/30 10:47:21;;;;;;;8.45;2.67;;;;;;;;;;4377033;32;20302;-71
2022/06/30 10:49:54;;;;;;;7.03;2.55;;;;;;;;;;4368323;32;20032;-70
2022/06/30 10:52:19;;;;;;;5.70;2.80;;;;;;;;;;4373396;32;20022;-68
2022/06/30 10:54:45;;;;;;;5.62;2.47;;;;;;;;;;4350724;32;20129;-70
2022/06/30 10:57:12;;;;;;;6.90;2.40;;;;;;;;;;4370875;32;20234;-71
2022/06/30 10:59:41;;;;;;;8.60;2.67;;;;;;;;;;4369590;32;20097;-70
2022/06/30 11:02:07;;;;;;;4.93;2.35;;;;;;;;;;4362810;32;20393;-70
2022/06/30 11:04:32;;;;;;;7.00;2.37;;;;;;;;;;4359125;32;20057;-70
2022/06/30 11:07:01;;;;;;;8.00;2.65;;;;;;;;;;4362452;32;20143;-69
2022/06/30 11:09:47;;;;;;;8.68;3.05;;;;;;;;;;4374362;32;20554;-70
2022/06/30 11:12:13;;;;;;;9.75;2.80;;;;;;;;;;4379429;32;20082;-70
2022/06/30 11:14:49;;;;;;;8.88;3.10;;;;;;;;;;4369823;32;20074;-70
2022/06/30 11:17:14;;;;;;;;;;;;;;;;;;4364341;32;20035;-70
2022/06/30 11:19:39;;;;;;;7.03;3.00;;;;;;;;;;4362681;32;20328;-69
2022/06/30 11:22:05;;;;;;;7.20;2.60;;;;;;;;;;4361937;32;20030;-71
2022/06/30 11:24:32;;;;;;;7.50;2.60;;;;;;;;;;4372534;32;20074;-71
2022/06/30 11:29:41;;;;;;;5.53;3.08;;;;;;;;;;4365525;32;20038;-69
2022/06/30 11:32:06;;;;;;;9.27;2.58;;;;;;;;;;4359557;32;20036;-70
2022/06/30 11:34:36;;;;;;;8.43;3.22;;;;;;;;;;4360792;32;20051;-70
2022/06/30 11:37:01;;;;;;;7.28;2.37;;;;;;;;;;4363461;32;20038;-70
2022/06/30 11:39:28;;;;;;;6.53;2.78;;;;;;;;;;4360882;32;20047;-69
2022/06/30 11:42:03;;;;;;;9.15;2.55;;;;;;;;;;4361265;32;20039;-69
2022/06/30 11:44:41;;;;;;;5.65;2.20;;;;;;;;;;4365101;32;20068;-70
2022/06/30 11:47:07;;;;;;;7.65;3.00;;;;;;;;;;4375923;32;20124;-70
2022/06/30 11:49:52;;;;;;;4.93;2.35;;;;;;;;;;4377335;32;20031;-70
2022/06/30 11:52:17;;;;;;;5.78;2.40;;;;;;;;;;4377834;32;20379;-70
2022/06/30 11:54:46;;;;;;;8.18;2.97;;;;;;;;;;4376219;32;20056;-70
2022/06/30 11:57:11;;;;;;;6.53;2.53;;;;;;;;;;4377263;32;20042;-70
2022/06/30 11:59:42;;;;;;;11.27;2.27;;;;;;;;;;4362568;32;20415;-70
2022/06/30 12:02:07;;;;;;;6.18;3.10;;;;;;;;;;4377554;32;20142;-70
2022/06/30 12:04:34;;;;;;;7.87;2.92;;;;;;;;;;4362035;32;20035;-70
2022/06/30 12:07:03;;;;;;;7.87;3.10;;;;;;;;;;4375020;32;20031;-71
2022/06/30 12:09:29;;;;;;;8.25;2.95;;;;;;;;;;4376228;32;20043;-71
2022/06/30 12:11:55;;;;;;;7.12;2.67;;;;;;;;;;4376610;32;20027;-70
2022/06/30 12:14:21;;;;;;;7.70;3.37;;;;;;;;;;4373780;32;20023;-70
2022/06/30 12:16:46;;;;;;;6.17;2.80;;;;;;;;;;4368386;32;20127;-71
2022/06/30 12:19:15;;;;;;;10.40;3.37;;;;;;;;;;4375009;32;20543;-68
2022/06/30 12:21:40;;;;;;;7.62;2.75;;;;;;;;;;4363061;32;20503;-71
2022/06/30 12:24:06;;;;;;;5.50;2.50;;;;;;;;;;4373532;32;20261;-70
2022/06/30 12:26:32;;;;;;;18.10;11.45;;;;;;;;;;4360474;32;20126;-70
2022/06/30 12:28:58;;;;;;;8.48;3.17;;;;;;;;;;4355013;32;20023;-70
2022/06/30 12:31:23;;;;;;;6.90;2.92;;;;;;;;;;4362419;32;20361;-70
2022/06/30 12:33:49;;;;;;;14.87;4.20;;;;;;;;;;4366977;32;20031;-70
2022/06/30 12:36:15;;;;;;;6.07;2.58;;;;;;;;;;4369323;32;20031;-68
2022/06/30 12:38:40;;;;;;;8.60;2.78;;;;;;;;;;4367087;32;20094;-69
2022/06/30 12:41:10;;;;;;;6.97;2.67;;;;;;;;;;4356261;32;20078;-70
2022/06/30 12:43:42;;;;;;;6.90;2.80;;;;;;;;;;4376430;32;20177;-70
2022/06/30 12:46:09;;;;;;;5.20;2.17;;;;;;;;;;4366905;32;20097;-70
2022/06/30 12:48:53;;;;;;;9.18;3.15;;;;;;;;;;4372841;32;20034;-69
2022/06/30 12:51:28;;;;;;;7.78;3.65;;;;;;;;;;4374714;32;20121;-69
2022/06/30 12:53:59;;;;;;;4.97;2.35;;;;;;;;;;4376077;32;20077;-69
2022/06/30 12:56:26;;;;;;;6.03;2.15;;;;;;;;;;4362067;32;20054;-71
2022/06/30 12:59:05;;;;;;;10.38;3.08;;;;;;;;;;4360485;32;20023;-70
2022/06/30 13:01:38;;;;;;;8.93;3.20;;;;;;;;;;4360420;32;20364;-70
2022/06/30 13:04:03;;;;;;;9.95;2.55;;;;;;;;;;4375574;32;20027;-68
2022/06/30 13:06:35;;;;;;;6.80;3.15;;;;;;;;;;4376814;32;20073;-71
2022/06/30 13:09:06;;;;;;;7.60;2.40;;;;;;;;;;4357103;32;20437;-70
2022/06/30 13:11:32;;;;;;;6.68;2.65;;;;;;;;;;4359901;32;20032;-68
2022/06/30 13:13:58;;;;;;;4.43;2.37;;;;;;;;;;4367799;32;20053;-70
2022/06/30 13:16:23;;;;;;;4.03;2.37;;;;;;;;;;4348429;32;20027;-70
2022/06/30 13:18:48;;;;;;;5.90;2.70;;;;;;;;;;4361389;32;20068;-70
2022/06/30 13:21:17;;;;;;;5.65;2.40;;;;;;;;;;4364697;32;20058;-70
2022/06/30 13:23:43;;;;;;;5.07;2.83;;;;;;;;;;4360012;32;20153;-69
2022/06/30 13:26:08;;;;;;;5.43;2.60;;;;;;;;;;4374853;32;20035;-70
2022/06/30 13:28:34;;;;;;;10.77;2.67;;;;;;;;;;4362150;32;20413;-69
2022/06/30 13:30:59;;;;;;;4.72;2.20;;;;;;;;;;4374556;32;20024;-69
2022/06/30 13:33:25;;;;;;;8.55;4.05;;;;;;;;;;4375466;32;20027;-70
2022/06/30 13:35:50;;;;;;;8.95;2.60;;;;;;;;;;4374979;32;20030;-70
2022/06/30 13:38:15;;;;;;;4.18;2.42;;;;;;;;;;4360991;32;20499;-71
2022/06/30 13:40:40;;;;;;;5.53;2.60;;;;;;;;;;4375173;32;20053;-71
2022/06/30 13:43:06;;;;;;;5.85;2.53;;;;;;;;;;4374568;32;20078;-70
2022/06/30 13:45:31;;;;;;;8.27;2.65;;;;;;;;;;4371515;32;20069;-71
2022/06/30 13:47:56;;;;;;;5.55;2.20;;;;;;;;;;4359765;32;20460;-71
2022/06/30 13:50:22;;;;;;;5.33;2.27;;;;;;;;;;4370334;32;20050;-74
2022/06/30 13:52:47;;;;;;;4.25;2.42;;;;;;;;;;4377741;32;20127;-70
2022/06/30 13:55:12;;;;;;;3.90;2.00;;;;;;;;;;4370218;32;20081;-70
2022/06/30 13:57:37;;;;;;;6.57;2.30;;;;;;;;;;4363290;32;20158;-70
2022/06/30 14:00:03;;;;;;;5.12;2.20;;;;;;;;;;4348982;33;20127;-71
2022/06/30 14:02:28;;;;;;;4.72;2.17;;;;;;;;;;4368055;32;20147;-70
2022/06/30 14:04:54;;;;;;;6.67;2.63;;;;;;;;;;4364187;32;20049;-69
2022/06/30 14:07:19;;;;;;;5.60;2.00;;;;;;;;;;4375689;32;20127;-69
2022/06/30 14:09:44;;;;;;;4.70;2.62;;;;;;;;;;4363299;32;20035;-69
2022/06/30 14:12:09;;;;;;;5.57;2.50;;;;;;;;;;4362863;32;20027;-70
2022/06/30 14:14:34;;;;;;;5.22;2.60;;;;;;;;;;4363580;32;20053;-69
2022/06/30 14:17:00;;;;;;;5.50;2.40;;;;;;;;;;4367607;32;20054;-71
2022/06/30 14:19:25;;;;;;;5.00;2.40;;;;;;;;;;4373184;32;20473;-71
2022/06/30 14:21:50;;;;;;;11.85;2.50;;;;;;;;;;4367753;32;20136;-70
2022/06/30 14:24:16;;;;;;;6.57;2.10;;;;;;;;;;4366121;32;20125;-71
2022/06/30 14:26:41;;;;;;;5.65;2.10;;;;;;;;;;4364110;32;20192;-69
2022/06/30 14:29:06;;;;;;;5.37;2.20;;;;;;;;;;4365692;32;20146;-71
2022/06/30 14:31:31;;;;;;;11.75;2.67;;;;;;;;;;4378254;32;20041;-70
2022/06/30 14:33:57;;;;;;;7.07;2.30;;;;;;;;;;4365279;32;20023;-69
2022/06/30 14:36:22;;;;;;;7.55;2.87;;;;;;;;;;4377913;32;20049;-71
2022/06/30 14:38:48;;;;;;;6.97;2.87;;;;;;;;;;4375390;32;20039;-71
2022/06/30 14:42:43;;;;;;;8.55;2.58;;;;;;;;;;4368674;32;20064;-70
2022/06/30 14:43:58;;;;;;;6.75;2.75;;;;;;;;;;4369804;32;20038;-70
2022/06/30 14:46:23;;;;;;;6.03;2.60;;;;;;;;;;4378125;32;20102;-68
2022/06/30 14:48:48;;;;;;;4.73;2.60;;;;;;;;;;4377151;32;20445;-70